Mendocino — WDB9115 — position and weather

sailwx.info

Track history (hours):
 
Tides and Currents Weather Stations Pressure Air Temp Water Temp Dewpoint Dewpoint Depression Visibility Wind Speed Wind Dir Waves Ship Positions

Mendocino

Owner: Golden Gate Bridge Hwy & Transp Dist., Larkspur, CA. More information available from US FCC via Universal Licensing System and Coast Guard Vessel Documentation Center.

Last reported at 2018-Feb-06 12:28 UTC. Time now 2018-Feb-24 19:43 UTC.
Position N 32°38' W 117°06'.
Warning: this ship's position is 18 days out of date.

Length 48 m.

Type: Ship. MMSI: 366970020.

Date/timePositionNaut miles runAvg speedWind from/ knotsBaromVisibWave heightAir tempDewpointWater temp
2018-Feb-06 12:28N 32°38' W 117°06'0 0.0
2018-Feb-06 11:58N 32°38' W 117°06'0 0.0
2018-Feb-06 11:11N 32°38' W 117°06'0 0.0
2018-Feb-06 10:17N 32°38' W 117°06'0 0.0
2018-Feb-06 06:15N 32°38' W 117°06'0 0.0
2018-Feb-06 05:58N 32°38' W 117°06'0 0.0
2018-Feb-06 04:40N 32°38' W 117°06'0 0.0
2018-Feb-06 04:30N 32°38' W 117°06'0 0.0
2018-Feb-06 03:58N 32°38' W 117°06'0 0.0
2018-Feb-06 03:30N 32°38' W 117°06'0 0.0
2018-Feb-06 03:00N 32°38' W 117°06'0 0.0
2018-Feb-06 02:30N 32°38' W 117°06'0 0.0
2018-Feb-06 02:00N 32°38' W 117°06'0 0.0
2018-Feb-06 01:30N 32°38' W 117°06'0 0.0
2018-Feb-06 00:30N 32°38' W 117°06'0 0.0
2018-Feb-05 23:58N 32°38' W 117°06'0 0.0
2018-Feb-05 23:30N 32°38' W 117°06'0 0.0
2018-Feb-05 22:59N 32°38' W 117°06'0 0.1
2018-Feb-05 22:30N 32°38' W 117°06'0 0.0
2018-Feb-05 17:00N 32°38' W 117°06'0 0.0
2018-Feb-05 12:36N 32°38' W 117°06'0 0.0
2018-Feb-05 12:28N 32°38' W 117°06'0 0.0
2018-Feb-05 11:59N 32°38' W 117°06'0 0.0
2018-Feb-05 11:30N 32°38' W 117°06'0 0.0
2018-Feb-05 11:00N 32°38' W 117°06'0 0.0
2018-Feb-05 10:24N 32°38' W 117°06'0 0.0
2018-Feb-05 07:35N 32°38' W 117°06'0 0.0
2018-Feb-05 05:18N 32°38' W 117°06'0 0.1
2018-Feb-05 04:55N 32°38' W 117°06'3 0.6
2018-Feb-04 23:18N 32°41' W 117°08'311.0
2018-Feb-04 23:00N 32°43' W 117°11'611.6
2018-Feb-04 22:30N 32°39' W 117°17'1632.4
2018-Feb-04 22:00N 32°50' W 117°31'1632.2
2018-Feb-04 21:31N 33°02' W 117°44'1631.3
2018-Feb-04 21:00N 33°11' W 117°59'3231.8
2018-Feb-04 19:59N 33°32' W 118°29'1531.7
2018-Feb-04 19:30N 33°40' W 118°44'1427.9
2018-Feb-04 19:00N 33°49' W 118°58'1326.2
2018-Feb-04 18:30N 33°56' W 119°11'1325.7
2018-Feb-04 18:00N 34°05' W 119°21'1326.1
2018-Feb-04 17:30N 34°16' W 119°31'12 6.0
2018-Feb-04 15:28N 34°24' W 119°42'0 0.0
2018-Feb-04 14:57N 34°24' W 119°42'1 2.4
2018-Feb-04 14:30N 34°23' W 119°41'0 0.9
2018-Feb-04 14:00N 34°23' W 119°41'917.9
2018-Feb-04 13:30N 34°23' W 119°52'1428.2
2018-Feb-04 13:00N 34°24' W 120°09'1428.0
2018-Feb-04 12:30N 34°25' W 120°26'1428.0
2018-Feb-04 12:01N 34°33' W 120°40'1428.4
2018-Feb-04 11:31N 34°44' W 120°51'4528.6
2018-Feb-04 09:55N 35°23' W 121°19'11326.8
2018-Feb-04 05:43N 37°01' W 122°28'627.1
2018-Feb-04 05:30N 37°07' W 122°31'1427.9
2018-Feb-04 05:01N 37°19' W 122°38'1427.1
2018-Feb-04 04:31N 37°32' W 122°44'1224.7
2018-Feb-04 04:01N 37°43' W 122°39'1325.5
2018-Feb-04 03:30N 37°52' W 122°27'611.5
2018-Feb-04 03:01N 37°57' W 122°31'1 0.0
2018-Feb-03 02:00N 37°56' W 122°30'1020.2
2018-Feb-03 01:30N 37°48' W 122°24'510.3
2018-Feb-03 01:00N 37°53' W 122°26'510.7
2018-Feb-03 00:30N 37°57' W 122°30'1020.5
2018-Feb-03 00:00N 37°48' W 122°24'511.0
2018-Feb-02 23:30N 37°53' W 122°26'510.6
2018-Feb-02 23:00N 37°57' W 122°31'0 0.4
2018-Feb-02 22:31N 37°57' W 122°30'0 0.4
2018-Feb-02 22:00N 37°57' W 122°31'0 0.0
2018-Feb-02 21:30N 37°57' W 122°31'0 0.0
2018-Feb-02 21:00N 37°57' W 122°31'0 0.0
2018-Feb-02 20:31N 37°57' W 122°31'0 0.0
2018-Feb-02 20:00N 37°57' W 122°31'0 0.0
2018-Feb-02 19:00N 37°57' W 122°31'0 0.0
2018-Feb-02 18:30N 37°57' W 122°31'0 0.0
2018-Feb-02 18:00N 37°57' W 122°31'1021.0
2018-Feb-02 17:30N 37°48' W 122°23'919.0
2018-Feb-02 17:00N 37°56' W 122°29'0 0.4
2018-Feb-02 16:30N 37°56' W 122°30'1 0.8
2018-Feb-02 15:30N 37°57' W 122°30'0 0.0
2018-Feb-02 02:02N 37°57' W 122°30'0 0.0
2018-Feb-02 02:00N 37°57' W 122°30'1020.7
2018-Feb-02 01:30N 37°48' W 122°23'4 7.8
2018-Feb-02 01:00N 37°52' W 122°25'613.0
2018-Feb-02 00:30N 37°57' W 122°30'1020.7
2018-Feb-02 00:00N 37°48' W 122°24'612.0
2018-Feb-01 23:30N 37°53' W 122°26'5 9.6
2018-Feb-01 23:00N 37°57' W 122°31'0 0.0
2018-Feb-01 22:00N 37°57' W 122°31'0 0.0
2018-Feb-01 21:30N 37°57' W 122°31'0 0.0
2018-Feb-01 19:30N 37°57' W 122°31'0 0.1
2018-Feb-01 19:00N 37°57' W 122°31'0 0.1
2018-Feb-01 18:30N 37°57' W 122°31'0 0.0
2018-Feb-01 18:00N 37°57' W 122°31'1020.5
2018-Feb-01 17:31N 37°48' W 122°23'917.2
2018-Feb-01 17:01N 37°56' W 122°28'1 1.6
2018-Feb-01 16:30N 37°56' W 122°29'1019.2
2018-Feb-01 16:01N 37°48' W 122°23'1020.8
2018-Feb-01 15:30N 37°57' W 122°30'0 0.1
2018-Feb-01 15:00N 37°57' W 122°31'0 0.0
2018-Feb-01 02:12N 37°57' W 122°30'0 0.3
2018-Feb-01 02:00N 37°57' W 122°30'1020.9
2018-Feb-01 01:30N 37°48' W 122°24'4 7.2
2018-Feb-01 01:00N 37°51' W 122°25'713.7
2018-Feb-01 00:30N 37°57' W 122°30'1020.4
2018-Feb-01 00:00N 37°48' W 122°24'1110.5
2018-Jan-31 23:00N 37°57' W 122°31'0 0.0
2018-Jan-31 22:30N 37°57' W 122°31'0 0.0
2018-Jan-31 21:00N 37°57' W 122°31'0 0.0
2018-Jan-31 20:30N 37°57' W 122°31'0 0.0
2018-Jan-31 20:00N 37°57' W 122°31'0 0.0
2018-Jan-31 19:30N 37°57' W 122°31'0 0.0
2018-Jan-31 19:00N 37°57' W 122°31'0 0.0
2018-Jan-31 18:30N 37°57' W 122°31'0 0.0
2018-Jan-31 18:00N 37°57' W 122°31'1020.9
2018-Jan-31 17:30N 37°48' W 122°23'918.4
2018-Jan-31 17:00N 37°56' W 122°29'0 0.6
2018-Jan-31 16:30N 37°56' W 122°29'1019.2
2018-Jan-31 16:00N 37°48' W 122°24'1020.8
2018-Jan-31 15:30N 37°57' W 122°30'0 0.2
2018-Jan-31 15:00N 37°57' W 122°31'1 0.0
2018-Jan-31 01:53N 37°56' W 122°30'1025.8
2018-Jan-31 01:31N 37°48' W 122°23'2 4.0
2018-Jan-31 01:00N 37°50' W 122°24'2 2.4
2018-Jan-31 00:00N 37°48' W 122°24'0 0.6
2018-Jan-30 23:30N 37°48' W 122°23'1020.7
2018-Jan-30 23:00N 37°57' W 122°31'0 0.0
2018-Jan-30 22:30N 37°57' W 122°31'0 0.0
2018-Jan-30 21:30N 37°57' W 122°31'0 0.0
2018-Jan-30 21:00N 37°57' W 122°31'0 0.0
2018-Jan-30 20:30N 37°57' W 122°31'0 0.1
2018-Jan-30 20:00N 37°57' W 122°31'0 0.0
2018-Jan-30 19:30N 37°57' W 122°31'0 0.0
2018-Jan-30 19:00N 37°57' W 122°31'0 0.0
2018-Jan-30 18:30N 37°57' W 122°31'0 0.0
2018-Jan-30 18:00N 37°57' W 122°31'1020.8
2018-Jan-30 17:30N 37°48' W 122°23'917.3
2018-Jan-30 17:00N 37°56' W 122°28'2 3.2
2018-Jan-30 16:31N 37°56' W 122°30'1020.1
2018-Jan-30 16:00N 37°48' W 122°24'1020.8
2018-Jan-30 15:31N 37°57' W 122°30'0 0.3
2018-Jan-30 15:00N 37°57' W 122°31'0 0.0
2018-Jan-30 02:00N 37°57' W 122°30'1020.6
2018-Jan-30 01:30N 37°48' W 122°23'0 0.9
2018-Jan-30 01:00N 37°49' W 122°23'1019.4
2018-Jan-30 00:30N 37°57' W 122°30'1020.8
2018-Jan-30 00:01N 37°48' W 122°24'3 6.8
2018-Jan-29 23:31N 37°51' W 122°25'714.4
2018-Jan-29 23:00N 37°57' W 122°31'0 0.0
2018-Jan-29 22:30N 37°57' W 122°31'0 0.0
2018-Jan-29 22:00N 37°57' W 122°31'0 0.0
2018-Jan-29 21:30N 37°57' W 122°31'0 0.0
2018-Jan-29 21:00N 37°57' W 122°31'0 0.0
2018-Jan-29 20:30N 37°57' W 122°31'0 0.0
2018-Jan-29 20:00N 37°57' W 122°31'0 0.0
2018-Jan-29 19:30N 37°57' W 122°31'0 0.0
2018-Jan-29 19:00N 37°57' W 122°31'0 0.0
2018-Jan-29 18:30N 37°57' W 122°31'0 0.0
2018-Jan-29 18:00N 37°57' W 122°31'1020.8
2018-Jan-29 17:31N 37°48' W 122°23'917.9
2018-Jan-29 17:01N 37°56' W 122°29'1 2.1
2018-Jan-29 16:30N 37°56' W 122°30'1019.8
2018-Jan-29 16:01N 37°48' W 122°24'1020.7
2018-Jan-29 15:30N 37°57' W 122°30'0 0.1
2018-Jan-29 15:00N 37°57' W 122°31'0 0.0
2018-Jan-29 14:30N 37°57' W 122°31'  
Track history (hours):
 
Tides and Currents Weather Stations Pressure Air Temp Water Temp Dewpoint Dewpoint Depression Visibility Wind Speed Wind Dir Waves Ship Positions

Mendocino

Owner: Golden Gate Bridge Hwy & Transp Dist., Larkspur, CA. More information available from US FCC via Universal Licensing System and Coast Guard Vessel Documentation Center.

Last reported at 2018-Feb-06 12:28 UTC. Time now 2018-Feb-24 19:43 UTC.
Position N 32°38' W 117°06'.
Warning: this ship's position is 18 days out of date.

Length 48 m.

Type: Ship. MMSI: 366970020.

Date/timePositionNaut miles runAvg speedWind from/ knotsBaromVisibWave heightAir tempDewpointWater temp
2018-Feb-06 12:28N 32°38' W 117°06'0 0.0
2018-Feb-06 11:58N 32°38' W 117°06'0 0.0
2018-Feb-06 11:11N 32°38' W 117°06'0 0.0
2018-Feb-06 10:17N 32°38' W 117°06'0 0.0
2018-Feb-06 06:15N 32°38' W 117°06'0 0.0
2018-Feb-06 05:58N 32°38' W 117°06'0 0.0
2018-Feb-06 04:40N 32°38' W 117°06'0 0.0
2018-Feb-06 04:30N 32°38' W 117°06'0 0.0
2018-Feb-06 03:58N 32°38' W 117°06'0 0.0
2018-Feb-06 03:30N 32°38' W 117°06'0 0.0
2018-Feb-06 03:00N 32°38' W 117°06'0 0.0
2018-Feb-06 02:30N 32°38' W 117°06'0 0.0
2018-Feb-06 02:00N 32°38' W 117°06'0 0.0
2018-Feb-06 01:30N 32°38' W 117°06'0 0.0
2018-Feb-06 00:30N 32°38' W 117°06'0 0.0
2018-Feb-05 23:58N 32°38' W 117°06'0 0.0
2018-Feb-05 23:30N 32°38' W 117°06'0 0.0
2018-Feb-05 22:59N 32°38' W 117°06'0 0.1
2018-Feb-05 22:30N 32°38' W 117°06'0 0.0
2018-Feb-05 17:00N 32°38' W 117°06'0 0.0
2018-Feb-05 12:36N 32°38' W 117°06'0 0.0
2018-Feb-05 12:28N 32°38' W 117°06'0 0.0
2018-Feb-05 11:59N 32°38' W 117°06'0 0.0
2018-Feb-05 11:30N 32°38' W 117°06'0 0.0
2018-Feb-05 11:00N 32°38' W 117°06'0 0.0
2018-Feb-05 10:24N 32°38' W 117°06'0 0.0
2018-Feb-05 07:35N 32°38' W 117°06'0 0.0
2018-Feb-05 05:18N 32°38' W 117°06'0 0.1
2018-Feb-05 04:55N 32°38' W 117°06'3 0.6
2018-Feb-04 23:18N 32°41' W 117°08'311.0
2018-Feb-04 23:00N 32°43' W 117°11'611.6
2018-Feb-04 22:30N 32°39' W 117°17'1632.4
2018-Feb-04 22:00N 32°50' W 117°31'1632.2
2018-Feb-04 21:31N 33°02' W 117°44'1631.3
2018-Feb-04 21:00N 33°11' W 117°59'3231.8
2018-Feb-04 19:59N 33°32' W 118°29'1531.7
2018-Feb-04 19:30N 33°40' W 118°44'1427.9
2018-Feb-04 19:00N 33°49' W 118°58'1326.2
2018-Feb-04 18:30N 33°56' W 119°11'1325.7
2018-Feb-04 18:00N 34°05' W 119°21'1326.1
2018-Feb-04 17:30N 34°16' W 119°31'12 6.0
2018-Feb-04 15:28N 34°24' W 119°42'0 0.0
2018-Feb-04 14:57N 34°24' W 119°42'1 2.4
2018-Feb-04 14:30N 34°23' W 119°41'0 0.9
2018-Feb-04 14:00N 34°23' W 119°41'917.9
2018-Feb-04 13:30N 34°23' W 119°52'1428.2
2018-Feb-04 13:00N 34°24' W 120°09'1428.0
2018-Feb-04 12:30N 34°25' W 120°26'1428.0
2018-Feb-04 12:01N 34°33' W 120°40'1428.4
2018-Feb-04 11:31N 34°44' W 120°51'4528.6
2018-Feb-04 09:55N 35°23' W 121°19'11326.8
2018-Feb-04 05:43N 37°01' W 122°28'627.1
2018-Feb-04 05:30N 37°07' W 122°31'1427.9
2018-Feb-04 05:01N 37°19' W 122°38'1427.1
2018-Feb-04 04:31N 37°32' W 122°44'1224.7
2018-Feb-04 04:01N 37°43' W 122°39'1325.5
2018-Feb-04 03:30N 37°52' W 122°27'611.5
2018-Feb-04 03:01N 37°57' W 122°31'1 0.0
2018-Feb-03 02:00N 37°56' W 122°30'1020.2
2018-Feb-03 01:30N 37°48' W 122°24'510.3
2018-Feb-03 01:00N 37°53' W 122°26'510.7
2018-Feb-03 00:30N 37°57' W 122°30'1020.5
2018-Feb-03 00:00N 37°48' W 122°24'511.0
2018-Feb-02 23:30N 37°53' W 122°26'510.6
2018-Feb-02 23:00N 37°57' W 122°31'0 0.4
2018-Feb-02 22:31N 37°57' W 122°30'0 0.4
2018-Feb-02 22:00N 37°57' W 122°31'0 0.0
2018-Feb-02 21:30N 37°57' W 122°31'0 0.0
2018-Feb-02 21:00N 37°57' W 122°31'0 0.0
2018-Feb-02 20:31N 37°57' W 122°31'0 0.0
2018-Feb-02 20:00N 37°57' W 122°31'0 0.0
2018-Feb-02 19:00N 37°57' W 122°31'0 0.0
2018-Feb-02 18:30N 37°57' W 122°31'0 0.0
2018-Feb-02 18:00N 37°57' W 122°31'1021.0
2018-Feb-02 17:30N 37°48' W 122°23'919.0
2018-Feb-02 17:00N 37°56' W 122°29'0 0.4
2018-Feb-02 16:30N 37°56' W 122°30'1 0.8
2018-Feb-02 15:30N 37°57' W 122°30'0 0.0
2018-Feb-02 02:02N 37°57' W 122°30'0 0.0
2018-Feb-02 02:00N 37°57' W 122°30'1020.7
2018-Feb-02 01:30N 37°48' W 122°23'4 7.8
2018-Feb-02 01:00N 37°52' W 122°25'613.0
2018-Feb-02 00:30N 37°57' W 122°30'1020.7
2018-Feb-02 00:00N 37°48' W 122°24'612.0
2018-Feb-01 23:30N 37°53' W 122°26'5 9.6
2018-Feb-01 23:00N 37°57' W 122°31'0 0.0
2018-Feb-01 22:00N 37°57' W 122°31'0 0.0
2018-Feb-01 21:30N 37°57' W 122°31'0 0.0
2018-Feb-01 19:30N 37°57' W 122°31'0 0.1
2018-Feb-01 19:00N 37°57' W 122°31'0 0.1
2018-Feb-01 18:30N 37°57' W 122°31'0 0.0
2018-Feb-01 18:00N 37°57' W 122°31'1020.5
2018-Feb-01 17:31N 37°48' W 122°23'917.2
2018-Feb-01 17:01N 37°56' W 122°28'1 1.6
2018-Feb-01 16:30N 37°56' W 122°29'1019.2
2018-Feb-01 16:01N 37°48' W 122°23'1020.8
2018-Feb-01 15:30N 37°57' W 122°30'0 0.1
2018-Feb-01 15:00N 37°57' W 122°31'0 0.0
2018-Feb-01 02:12N 37°57' W 122°30'0 0.3
2018-Feb-01 02:00N 37°57' W 122°30'1020.9
2018-Feb-01 01:30N 37°48' W 122°24'4 7.2
2018-Feb-01 01:00N 37°51' W 122°25'713.7
2018-Feb-01 00:30N 37°57' W 122°30'1020.4
2018-Feb-01 00:00N 37°48' W 122°24'1110.5
2018-Jan-31 23:00N 37°57' W 122°31'0 0.0
2018-Jan-31 22:30N 37°57' W 122°31'0 0.0
2018-Jan-31 21:00N 37°57' W 122°31'0 0.0
2018-Jan-31 20:30N 37°57' W 122°31'0 0.0
2018-Jan-31 20:00N 37°57' W 122°31'0 0.0
2018-Jan-31 19:30N 37°57' W 122°31'0 0.0
2018-Jan-31 19:00N 37°57' W 122°31'0 0.0
2018-Jan-31 18:30N 37°57' W 122°31'0 0.0
2018-Jan-31 18:00N 37°57' W 122°31'1020.9
2018-Jan-31 17:30N 37°48' W 122°23'918.4
2018-Jan-31 17:00N 37°56' W 122°29'0 0.6
2018-Jan-31 16:30N 37°56' W 122°29'1019.2
2018-Jan-31 16:00N 37°48' W 122°24'1020.8
2018-Jan-31 15:30N 37°57' W 122°30'0 0.2
2018-Jan-31 15:00N 37°57' W 122°31'1 0.0
2018-Jan-31 01:53N 37°56' W 122°30'1025.8
2018-Jan-31 01:31N 37°48' W 122°23'2 4.0
2018-Jan-31 01:00N 37°50' W 122°24'2 2.4
2018-Jan-31 00:00N 37°48' W 122°24'0 0.6
2018-Jan-30 23:30N 37°48' W 122°23'1020.7
2018-Jan-30 23:00N 37°57' W 122°31'0 0.0
2018-Jan-30 22:30N 37°57' W 122°31'0 0.0
2018-Jan-30 21:30N 37°57' W 122°31'0 0.0
2018-Jan-30 21:00N 37°57' W 122°31'0 0.0
2018-Jan-30 20:30N 37°57' W 122°31'0 0.1
2018-Jan-30 20:00N 37°57' W 122°31'0 0.0
2018-Jan-30 19:30N 37°57' W 122°31'0 0.0
2018-Jan-30 19:00N 37°57' W 122°31'0 0.0
2018-Jan-30 18:30N 37°57' W 122°31'0 0.0
2018-Jan-30 18:00N 37°57' W 122°31'1020.8
2018-Jan-30 17:30N 37°48' W 122°23'917.3
2018-Jan-30 17:00N 37°56' W 122°28'2 3.2
2018-Jan-30 16:31N 37°56' W 122°30'1020.1
2018-Jan-30 16:00N 37°48' W 122°24'1020.8
2018-Jan-30 15:31N 37°57' W 122°30'0 0.3
2018-Jan-30 15:00N 37°57' W 122°31'0 0.0
2018-Jan-30 02:00N 37°57' W 122°30'1020.6
2018-Jan-30 01:30N 37°48' W 122°23'0 0.9
2018-Jan-30 01:00N 37°49' W 122°23'1019.4
2018-Jan-30 00:30N 37°57' W 122°30'1020.8
2018-Jan-30 00:01N 37°48' W 122°24'3 6.8
2018-Jan-29 23:31N 37°51' W 122°25'714.4
2018-Jan-29 23:00N 37°57' W 122°31'0 0.0
2018-Jan-29 22:30N 37°57' W 122°31'0 0.0
2018-Jan-29 22:00N 37°57' W 122°31'0 0.0
2018-Jan-29 21:30N 37°57' W 122°31'0 0.0
2018-Jan-29 21:00N 37°57' W 122°31'0 0.0
2018-Jan-29 20:30N 37°57' W 122°31'0 0.0
2018-Jan-29 20:00N 37°57' W 122°31'0 0.0
2018-Jan-29 19:30N 37°57' W 122°31'0 0.0
2018-Jan-29 19:00N 37°57' W 122°31'0 0.0
2018-Jan-29 18:30N 37°57' W 122°31'0 0.0
2018-Jan-29 18:00N 37°57' W 122°31'1020.8
2018-Jan-29 17:31N 37°48' W 122°23'917.9
2018-Jan-29 17:01N 37°56' W 122°29'1 2.1
2018-Jan-29 16:30N 37°56' W 122°30'1019.8
2018-Jan-29 16:01N 37°48' W 122°24'1020.7
2018-Jan-29 15:30N 37°57' W 122°30'0 0.1
2018-Jan-29 15:00N 37°57' W 122°31'0 0.0
2018-Jan-29 14:30N 37°57' W 122°31'  

Dump ship's entire track history